Bierbeek, Belgium
Current Conditions -  °F | °C
As of 2:25 AM on Saturday 29 Nov 2014 (Local Time) from EBBE Reporting Station
Clear Clear  
Wind Chill: 31°   Ceiling: Unl
Heat Index: 37°   Visibility: 3mi
Dew Point: 36°   Wind: 8mph
Humidity: 93%   Direction: 70°ENE
Pressure: 29.83"   Gusts: NA
Location:  50.83°N, 4.76°E
Report Text: EBBE 290125Z AUTO 07007KT 5000 NCD 03/02 Q1010 WHT
Loading
Personal Weather Stations






























Interactive Weather Map New forecast layout! Learn more

10-Day Weather Forecast

Advertisements
Track Severe Weather on mobile